createdAt,value
2022-08-01T00:03:20.610Z,4
2022-08-01T00:08:20.637Z,4
2022-08-01T00:13:20.623Z,4
2022-08-01T00:18:20.657Z,3
2022-08-01T00:23:20.651Z,3
2022-08-01T00:28:20.645Z,3
2022-08-01T00:33:20.693Z,3
2022-08-01T00:38:21.225Z,5
2022-08-01T00:43:20.702Z,4
2022-08-01T00:48:20.692Z,3
2022-08-01T00:53:20.721Z,4
2022-08-01T00:58:20.724Z,4
2022-08-01T01:03:23.755Z,4
2022-08-01T01:08:20.739Z,3
2022-08-01T01:13:20.733Z,3
2022-08-01T01:18:20.752Z,5
2022-08-01T01:23:20.763Z,5
2022-08-01T01:28:20.837Z,6
2022-08-01T01:33:20.775Z,5
2022-08-01T01:38:20.806Z,6
2022-08-01T01:43:20.827Z,6
2022-08-01T01:48:20.820Z,7
2022-08-01T01:53:20.855Z,9
2022-08-01T01:58:20.854Z,9
2022-08-01T02:03:20.863Z,7
2022-08-01T02:08:20.874Z,8
2022-08-01T02:13:21.319Z,9
2022-08-01T02:18:23.851Z,8
2022-08-01T02:23:20.879Z,8
2022-08-01T02:28:20.897Z,8
2022-08-01T02:33:20.903Z,9
2022-08-01T02:38:20.949Z,8
2022-08-01T02:43:20.975Z,9
2022-08-01T02:48:20.932Z,8
2022-08-01T02:53:20.941Z,8
2022-08-01T02:58:21.047Z,9
2022-08-01T03:03:20.990Z,8
2022-08-01T03:08:20.958Z,8
2022-08-01T03:13:20.960Z,9
2022-08-01T03:18:21.494Z,8
2022-08-01T03:23:21.012Z,9
2022-08-01T03:28:21.033Z,9
2022-08-01T03:33:21.030Z,8
2022-08-01T03:38:21.192Z,8
2022-08-01T03:43:21.093Z,9
2022-08-01T03:48:21.100Z,9
2022-08-01T03:53:21.080Z,9
2022-08-01T03:58:21.108Z,9
2022-08-01T04:03:21.083Z,8
2022-08-01T04:08:21.124Z,9
2022-08-01T04:13:21.626Z,9
2022-08-01T04:18:21.597Z,8
2022-08-01T04:23:21.130Z,8
2022-08-01T04:28:21.684Z,9
2022-08-01T04:33:21.942Z,9
2022-08-01T04:38:21.145Z,10
2022-08-01T04:43:21.152Z,10
2022-08-01T04:48:22.602Z,9
2022-08-01T04:53:21.202Z,8
2022-08-01T04:58:21.243Z,8
2022-08-01T05:03:21.210Z,8
2022-08-01T05:08:21.210Z,7
2022-08-01T05:13:21.215Z,8
2022-08-01T05:18:24.253Z,7
2022-08-01T05:23:25.880Z,9
2022-08-01T05:28:21.226Z,8
2022-08-01T05:33:21.275Z,6
2022-08-01T05:38:21.298Z,7
2022-08-01T05:43:23.365Z,7
2022-08-01T05:48:21.269Z,7
2022-08-01T05:53:21.265Z,8
2022-08-01T05:58:21.284Z,7
2022-08-01T06:03:21.884Z,7
2022-08-01T06:08:21.388Z,7
2022-08-01T06:13:21.846Z,7
2022-08-01T06:18:21.311Z,6
2022-08-01T06:23:31.453Z,6
2022-08-01T06:28:21.360Z,6
2022-08-01T06:33:21.433Z,5
2022-08-01T06:38:21.359Z,6
2022-08-01T06:43:21.377Z,7
2022-08-01T06:48:21.413Z,7
2022-08-01T06:53:21.517Z,7
2022-08-01T06:58:21.442Z,6
2022-08-01T07:03:21.402Z,6
2022-08-01T07:08:21.418Z,6
2022-08-01T07:13:21.425Z,6
2022-08-01T07:18:21.459Z,7
2022-08-01T07:23:22.646Z,5
2022-08-01T07:28:21.458Z,6
2022-08-01T07:33:21.499Z,7
2022-08-01T07:38:21.799Z,7
2022-08-01T07:43:21.505Z,7
2022-08-01T07:48:21.542Z,7
2022-08-01T07:53:21.519Z,7
2022-08-01T07:58:21.555Z,6
2022-08-01T08:03:21.531Z,6
2022-08-01T08:08:21.561Z,7
2022-08-01T08:13:21.613Z,7
2022-08-01T08:18:21.561Z,6
2022-08-01T08:23:41.720Z,6
2022-08-01T08:28:23.220Z,6
2022-08-01T08:33:21.593Z,6
2022-08-01T08:38:21.639Z,6
2022-08-01T08:43:21.627Z,7
2022-08-01T08:48:21.648Z,6
2022-08-01T08:53:21.648Z,5
2022-08-01T08:58:22.693Z,5
2022-08-01T09:03:21.666Z,6
2022-08-01T09:08:21.772Z,5
2022-08-01T09:13:22.201Z,5
2022-08-01T09:18:21.690Z,5
2022-08-01T09:23:22.189Z,6
2022-08-01T09:28:21.830Z,5
2022-08-01T09:33:21.929Z,4
2022-08-01T09:38:21.761Z,5
2022-08-01T09:43:21.759Z,5
2022-08-01T09:48:22.589Z,4
2022-08-01T09:53:22.829Z,4
2022-08-01T09:58:21.792Z,4
2022-08-01T10:03:21.807Z,4
2022-08-01T10:08:22.945Z,4
2022-08-01T10:13:21.807Z,3
2022-08-01T10:18:26.110Z,4
2022-08-01T10:23:21.875Z,3
2022-08-01T10:28:23.995Z,4
2022-08-01T10:33:50.037Z,3
2022-08-01T10:38:21.940Z,3
2022-08-01T10:43:22.306Z,4
2022-08-01T10:48:21.924Z,4
2022-08-01T10:53:23.515Z,5
2022-08-01T10:58:21.928Z,4
2022-08-01T11:03:35.953Z,4
2022-08-01T11:08:21.895Z,3
2022-08-01T11:13:21.936Z,4
2022-08-01T11:18:22.450Z,3
2022-08-01T11:23:23.427Z,3
2022-08-01T11:28:29.396Z,4
2022-08-01T11:33:22.000Z,3
2022-08-01T11:38:22.013Z,3
2022-08-01T11:43:21.981Z,3
2022-08-01T11:48:21.994Z,4
2022-08-01T11:53:22.126Z,3
2022-08-01T11:58:27.455Z,4
2022-08-01T12:03:28.101Z,3
2022-08-01T12:08:22.072Z,3
2022-08-01T12:13:22.027Z,4
2022-08-01T12:18:22.025Z,3
2022-08-01T12:23:22.042Z,3
2022-08-01T12:28:22.052Z,4
2022-08-01T12:33:22.102Z,3
2022-08-01T12:38:22.069Z,3
2022-08-01T12:43:27.701Z,4
2022-08-01T12:48:22.151Z,3
2022-08-01T12:53:22.455Z,3
2022-08-01T12:58:22.111Z,3
2022-08-01T13:03:22.152Z,3
2022-08-01T13:08:22.143Z,3
2022-08-01T13:13:28.068Z,3
2022-08-01T13:18:22.163Z,3
2022-08-01T13:24:02.229Z,3
2022-08-01T13:28:22.468Z,3
2022-08-01T13:33:22.212Z,3
2022-08-01T13:38:22.291Z,3
2022-08-01T13:43:22.210Z,3
2022-08-01T13:48:22.210Z,3
2022-08-01T13:53:22.242Z,3
2022-08-01T13:58:22.771Z,2
2022-08-01T14:03:22.272Z,2
2022-08-01T14:08:22.306Z,3
2022-08-01T14:13:23.771Z,3
2022-08-01T14:18:22.355Z,3
2022-08-01T14:23:22.603Z,3
2022-08-01T14:28:22.290Z,3
2022-08-01T14:33:22.335Z,3
2022-08-01T14:38:31.122Z,3
2022-08-01T14:43:27.209Z,3
2022-08-01T14:48:22.360Z,3
2022-08-01T14:53:22.409Z,3
2022-08-01T14:58:22.408Z,4
2022-08-01T15:03:22.396Z,3
2022-08-01T15:08:22.365Z,3
2022-08-01T15:13:22.391Z,3
2022-08-01T15:18:22.423Z,4
2022-08-01T15:23:22.433Z,3
2022-08-01T15:28:22.454Z,3
2022-08-01T15:33:22.552Z,3
2022-08-01T15:38:22.495Z,3
2022-08-01T15:43:22.469Z,3
2022-08-01T15:48:22.463Z,2
2022-08-01T15:53:22.471Z,4
2022-08-01T15:58:22.495Z,3
2022-08-01T16:03:22.496Z,3
2022-08-01T16:08:22.496Z,3
2022-08-01T16:13:22.497Z,3
2022-08-01T16:18:22.590Z,3
2022-08-01T16:23:22.555Z,4
2022-08-01T16:28:22.564Z,4
2022-08-01T16:33:38.958Z,4
2022-08-01T16:38:22.625Z,3
2022-08-01T16:43:22.598Z,3
2022-08-01T16:48:22.558Z,3
2022-08-01T16:53:22.581Z,3
2022-08-01T16:58:27.166Z,3
2022-08-01T17:03:46.268Z,3
2022-08-01T17:08:22.655Z,3
2022-08-01T17:13:22.693Z,3
2022-08-01T17:18:22.704Z,3
2022-08-01T17:23:22.706Z,3
2022-08-01T17:28:22.723Z,3
2022-08-01T17:33:23.161Z,4
2022-08-01T17:38:22.683Z,2
2022-08-01T17:43:22.740Z,3
2022-08-01T17:48:22.739Z,3
2022-08-01T17:53:22.721Z,3
2022-08-01T17:58:33.295Z,3
2022-08-01T18:03:30.132Z,3
2022-08-01T18:08:22.743Z,3
2022-08-01T18:13:22.738Z,3
2022-08-01T18:18:32.889Z,3
2022-08-01T18:23:22.782Z,3
2022-08-01T18:28:32.639Z,3
2022-08-01T18:33:22.828Z,4
2022-08-01T18:38:23.986Z,3
2022-08-01T18:43:22.880Z,3
2022-08-01T18:48:23.414Z,4
2022-08-01T18:53:22.858Z,4
2022-08-01T18:58:22.854Z,3
2022-08-01T19:03:22.886Z,3
2022-08-01T19:08:22.867Z,3
2022-08-01T19:13:22.912Z,4
2022-08-01T19:18:22.975Z,3
2022-08-01T19:23:22.924Z,3
2022-08-01T19:28:22.904Z,3
2022-08-01T19:33:22.932Z,3
2022-08-01T19:38:22.954Z,3
2022-08-01T19:43:22.981Z,4
2022-08-01T19:48:22.978Z,4
2022-08-01T19:53:23.022Z,4
2022-08-01T19:58:27.638Z,4
2022-08-01T20:03:23.540Z,4
2022-08-01T20:08:23.006Z,3
2022-08-01T20:13:23.072Z,3
2022-08-01T20:18:23.040Z,4
2022-08-01T20:23:23.126Z,3
2022-08-01T20:28:23.044Z,3
2022-08-01T20:33:23.044Z,4
2022-08-01T20:38:23.246Z,4
2022-08-01T20:43:23.075Z,4
2022-08-01T20:48:23.112Z,3
2022-08-01T20:53:23.089Z,3
2022-08-01T20:58:23.078Z,3
2022-08-01T21:03:23.081Z,3
2022-08-01T21:08:23.649Z,3
2022-08-01T21:13:23.262Z,3
2022-08-01T21:18:23.123Z,4
2022-08-01T21:23:23.106Z,4
2022-08-01T21:28:23.206Z,3
2022-08-01T21:33:23.135Z,3
2022-08-01T21:38:23.865Z,3
2022-08-01T21:43:23.699Z,4
2022-08-01T21:48:25.899Z,3
2022-08-01T21:53:32.215Z,3
2022-08-01T21:58:23.295Z,3
2022-08-01T22:03:23.200Z,3
2022-08-01T22:08:23.209Z,3
2022-08-01T22:13:23.215Z,3
2022-08-01T22:18:23.228Z,3
2022-08-01T22:23:23.638Z,3
2022-08-01T22:28:23.274Z,3
2022-08-01T22:33:23.296Z,3
2022-08-01T22:38:23.292Z,4
2022-08-01T22:43:23.305Z,3
2022-08-01T22:48:23.307Z,3
2022-08-01T22:53:23.314Z,4
2022-08-01T22:58:23.342Z,4
2022-08-01T23:03:23.383Z,4
2022-08-01T23:08:23.435Z,3
2022-08-01T23:13:23.359Z,4
2022-08-01T23:18:23.416Z,3
2022-08-01T23:23:30.588Z,4
2022-08-01T23:28:23.369Z,4
2022-08-01T23:33:23.374Z,4
2022-08-01T23:38:23.389Z,5
2022-08-01T23:43:23.392Z,4
2022-08-01T23:48:23.453Z,4
2022-08-01T23:53:23.560Z,4
2022-08-01T23:58:23.462Z,4
